Fairplay, CO (80440)

12:48 AM MDT on August 30, 2014 (GMT -0600)
Redhill Forest-West Slope | Change Station
CLOSE
Current Station
Personal Weather Station
Location: Fairplay, CO
Elevation: 9731 ft
Nearby Weather Stations

Elev 9731 ft 39.16 °N, 105.93 °W | Updated 6 minutes ago

Clear
Clear
43.0 °F
Feels Like 43 °F
N
2.2
Wind Variable Wind from NE

Today
High -- | Low -- °F
--% Chance of Precip.
Yesterday
High -- | Low -- °F
Precip. -- in
6:30 AM 7:37 PM
Waxing Crescent, 19% visible
Pressure 30.08 in
Visibility 10.0 miles
Clouds Clear
Windchill 43 °F
Dew Point 36 °F
Humidity 77%
Rainfall 0.00 in
Snow Depth Not available.
UV 0 out of 12
Pollen 10.40 out of 12
Air Quality Not available.
Flu Activity Not available.
METAR KLXV 300553Z AUTO 03003KT 10SM CLR 03/01 A3046 RMK AO2 SLP186 T00280011 10122 20028 50001

More Conditions Fewer Conditions

Pressure 30.08 in
Visibility 10.0 miles
Clouds Clear
Windchill 43 °F
Dew Point 36 °F
Humidity 77%
Rainfall 0.00 in
Snow Depth Not available.
UV 0 out of 12
Pollen 10.40 out of 12
Air Quality Not available.
Flu Activity Not available.
METAR KLXV 300553Z AUTO 03003KT 10SM CLR 03/01 A3046 RMK AO2 SLP186 T00280011 10122 20028 50001

More Conditions Fewer Conditions

10-Day Weather Forecast

Almanac

Astronomy

Aug. 30, 2014 Rise Set
Actual Time 6:30 AM MDT 7:37 PM MDT
Civil Twilight 6:03 AM MDT 8:05 PM MDT
Nautical Twilight 5:30 AM MDT 8:37 PM MDT
Astronomical Twilight 4:56 AM MDT 9:11 PM MDT
Moon 11:18 AM MDT 10:15 PM MDT
Length of Visible Light 14h 01m
Length of Day
13h 06m
Tomorrow will be 2m 26s shorter.
Waxing Crescent, 19% of the Moon is Illuminated
Today
Waxing Crescent
Sep 2
First Quarter
Sep 8
Full
Sep 15
Last Quarter
Sep 24
New

Today's Extremes

State Highs State Lows

Community

WunderPhotos

Upload Photos

1,748,462 photos uploaded!

Nearby

Snow Depth

Station Depth Elevation
Buckskin Joe 0 in 11150 ft
Hoosier Pass 0 in 11400 ft
Rough And Tumble 1 in 10360 ft
Michigan Creek 0 in 10600 ft
Fremont Pass 0 in 11400 ft

Earthquake Activity

City Distance Mag. Time & Date
No recent earthquake activity has been reported nearby.
Minimum magnitude displayed is 2.5.

Coastal Water Temperatures

Place Temperature
No Stations Reporting

Nearby Weather Stations